Weather at Sitka Rocky Gutierrez Airport

Public forecast

Using degrees Fahrenheit for public forecast. Weather courtesy of forecast.io.

Current aviation weather report (METAR) for Sitka Rocky Gutierrez Airport

Retrieved 2020/09/20 21:53 UTC (55 minutes ago):

PASI 202153Z 12009KT 9SM BKN047 OVC055 12/07 A2976

Aviation forecast (TAF) for Sitka Rocky Gutierrez Airport

Retrieved 2020/09/20 18:24 UTC (4 hours ago):

TAF PASI 201722Z 2018/2118 12009KT P6SM VCSH SCT025 OVC060 TEMPO 2018/2020 5SM -SHRA FM202000 11009KT 6SM -SHRA SCT025 OVC035 FM210000 13009KT 5SM -SHRA BKN025 OVC035 WS020/16030KT FM210900 12005KT P6SM VCSH OVC050